createdAt,value
2023-04-06T00:02:11.112Z,2.81
2023-04-06T00:04:37.737Z,2.98
2023-04-06T00:07:04.439Z,3.01
2023-04-06T00:09:30.984Z,2.97
2023-04-06T00:11:58.703Z,2.98
2023-04-06T00:14:25.422Z,2.93
2023-04-06T00:16:52.027Z,2.77
2023-04-06T00:19:18.555Z,2.95
2023-04-06T00:21:45.527Z,3.01
2023-04-06T00:24:12.183Z,3.05
2023-04-06T00:26:38.700Z,2.92
2023-04-06T00:29:05.439Z,2.94
2023-04-06T00:31:32.019Z,2.93
2023-04-06T00:33:59.211Z,2.86
2023-04-06T00:36:26.671Z,2.92
2023-04-06T00:38:53.369Z,3.01
2023-04-06T00:41:21.582Z,3.03
2023-04-06T00:43:48.271Z,3.02
2023-04-06T00:46:15.058Z,3.02
2023-04-06T00:48:41.833Z,2.92
2023-04-06T00:51:08.393Z,2.94
2023-04-06T00:53:34.926Z,2.97
2023-04-06T00:56:02.334Z,2.85
2023-04-06T00:58:38.816Z,2.78
2023-04-06T01:01:07.722Z,2.83
2023-04-06T01:03:35.824Z,2.84
2023-04-06T01:06:22.684Z,2.79
2023-04-06T01:09:18.166Z,2.77
2023-04-06T01:12:05.039Z,2.77
2023-04-06T01:14:54.317Z,2.75
2023-04-06T01:17:41.598Z,2.71
2023-04-06T01:20:33.172Z,2.61
2023-04-06T01:23:01.999Z,2.61
2023-04-06T01:25:28.829Z,2.55
2023-04-06T01:28:06.242Z,2.47
2023-04-06T01:30:55.270Z,2.39
2023-04-06T01:33:40.876Z,2.50
2023-04-06T01:36:10.955Z,2.54
2023-04-06T01:38:37.484Z,2.50
2023-04-06T01:41:04.314Z,2.45
2023-04-06T01:43:38.333Z,2.41
2023-04-06T01:46:07.822Z,2.44
2023-04-06T01:48:37.443Z,2.39
2023-04-06T01:51:13.890Z,2.34
2023-04-06T01:53:49.275Z,2.23
2023-04-06T01:56:17.166Z,2.28
2023-04-06T01:58:52.553Z,2.28
2023-04-06T02:01:19.631Z,2.18
2023-04-06T02:03:53.000Z,2.24
2023-04-06T02:06:19.730Z,2.16
2023-04-06T02:08:46.680Z,2.01
2023-04-06T02:11:13.622Z,2.03
2023-04-06T02:13:45.403Z,2.02
2023-04-06T02:16:12.440Z,2.04
2023-04-06T02:18:39.052Z,2.02
2023-04-06T02:21:05.798Z,2.01
2023-04-06T02:23:32.394Z,2.10
2023-04-06T02:25:58.954Z,1.94
2023-04-06T02:28:25.632Z,2.01
2023-04-06T02:30:52.209Z,2.00
2023-04-06T02:33:19.981Z,1.97
2023-04-06T02:35:47.922Z,1.87
2023-04-06T02:38:14.531Z,1.96
2023-04-06T02:40:41.566Z,1.99
2023-04-06T02:43:21.527Z,2.00
2023-04-06T02:45:51.497Z,1.94
2023-04-06T02:48:19.481Z,1.91
2023-04-06T02:50:46.151Z,1.91
2023-04-06T02:53:12.976Z,1.79
2023-04-06T02:55:40.512Z,1.77
2023-04-06T02:58:07.450Z,1.84
2023-04-06T03:00:43.741Z,1.84
2023-04-06T03:03:10.422Z,1.70
2023-04-06T03:05:37.706Z,1.75
2023-04-06T03:08:05.176Z,1.66
2023-04-06T03:10:42.274Z,1.63
2023-04-06T03:13:08.996Z,1.67
2023-04-06T03:16:02.118Z,1.70
2023-04-06T03:18:29.420Z,1.58
2023-04-06T03:20:57.310Z,1.56
2023-04-06T03:23:29.768Z,1.49
2023-04-06T03:25:59.943Z,1.44
2023-04-06T03:28:27.332Z,1.46
2023-04-06T03:30:59.873Z,1.43
2023-04-06T03:34:01.796Z,1.10
2023-04-06T03:36:32.159Z,1.30
2023-04-06T03:38:59.685Z,1.32
2023-04-06T03:41:26.197Z,1.35
2023-04-06T03:44:01.668Z,1.33
2023-04-06T03:46:28.419Z,1.28
2023-04-06T03:48:57.612Z,1.28
2023-04-06T03:51:24.677Z,1.26
2023-04-06T03:53:51.184Z,1.19
2023-04-06T03:56:17.706Z,1.26
2023-04-06T03:58:46.186Z,1.13
2023-04-06T04:01:13.211Z,1.10
2023-04-06T04:03:39.856Z,1.05
2023-04-06T04:06:06.708Z,1.15
2023-04-06T04:08:33.344Z,1.14
2023-04-06T04:11:00.309Z,1.20
2023-04-06T04:13:26.907Z,1.19
2023-04-06T04:15:54.125Z,1.13
2023-04-06T04:18:20.720Z,1.09
2023-04-06T04:20:47.349Z,1.10
2023-04-06T04:23:14.044Z,1.13
2023-04-06T04:25:41.756Z,1.11
2023-04-06T04:28:08.268Z,1.12
2023-04-06T04:30:36.248Z,1.06
2023-04-06T04:33:06.939Z,1.03
2023-04-06T04:35:33.466Z,0.96
2023-04-06T04:38:00.409Z,0.97
2023-04-06T04:40:27.322Z,0.97
2023-04-06T04:43:02.124Z,0.84
2023-04-06T04:45:32.240Z,0.89
2023-04-06T04:48:06.027Z,0.83
2023-04-06T04:50:45.639Z,0.79
2023-04-06T04:53:13.938Z,0.78
2023-04-06T04:55:41.878Z,0.73
2023-04-06T04:58:09.936Z,0.73
2023-04-06T05:00:47.642Z,0.67
2023-04-06T05:03:26.833Z,0.68
2023-04-06T05:06:00.338Z,0.65
2023-04-06T05:08:31.117Z,0.65
2023-04-06T05:10:58.097Z,0.69
2023-04-06T05:13:25.338Z,0.65
2023-04-06T05:15:54.170Z,0.65
2023-04-06T05:18:25.079Z,0.63
2023-04-06T05:20:52.797Z,0.69
2023-04-06T05:23:24.483Z,0.69
2023-04-06T05:25:52.266Z,0.73
2023-04-06T05:28:22.067Z,0.65
2023-04-06T05:30:48.770Z,0.68
2023-04-06T05:33:16.570Z,0.62
2023-04-06T05:36:07.976Z,0.61
2023-04-06T05:38:37.834Z,0.77
2023-04-06T05:41:14.772Z,0.71
2023-04-06T05:43:42.375Z,0.67
2023-04-06T05:46:08.923Z,0.68
2023-04-06T05:48:35.995Z,0.89
2023-04-06T05:51:07.081Z,0.96
2023-04-06T05:53:42.577Z,0.95
2023-04-06T05:56:09.255Z,1.02
2023-04-06T05:58:35.960Z,0.94
2023-04-06T06:01:03.999Z,1.01
2023-04-06T06:03:38.086Z,1.24
2023-04-06T06:06:05.662Z,1.32
2023-04-06T06:08:54.147Z,1.45
2023-04-06T06:11:21.194Z,1.53
2023-04-06T06:13:49.445Z,1.67
2023-04-06T06:16:16.117Z,1.66
2023-04-06T06:18:45.945Z,1.79
2023-04-06T06:21:13.317Z,1.87
2023-04-06T06:23:40.580Z,2.00
2023-04-06T06:26:07.409Z,2.05
2023-04-06T06:28:34.214Z,2.16
2023-04-06T06:31:02.005Z,2.29
2023-04-06T06:33:30.536Z,2.39
2023-04-06T06:35:58.427Z,2.55
2023-04-06T06:38:24.939Z,2.64
2023-04-06T06:40:52.158Z,2.82
2023-04-06T06:43:19.840Z,2.86
2023-04-06T06:45:52.298Z,2.98
2023-04-06T06:48:18.885Z,3.11
2023-04-06T06:50:45.659Z,3.16
2023-04-06T06:53:13.355Z,3.22
2023-04-06T06:55:39.930Z,3.23
2023-04-06T06:58:07.070Z,3.28
2023-04-06T07:00:33.823Z,3.39
2023-04-06T07:03:00.545Z,3.50
2023-04-06T07:05:29.005Z,3.66
2023-04-06T07:07:57.827Z,3.75
2023-04-06T07:10:25.843Z,3.81
2023-04-06T07:12:52.532Z,4.08
2023-04-06T07:15:19.159Z,3.99
2023-04-06T07:17:46.270Z,4.24
2023-04-06T07:20:13.599Z,4.40
2023-04-06T07:22:41.355Z,4.43
2023-04-06T07:25:08.697Z,4.48
2023-04-06T07:27:35.360Z,4.59
2023-04-06T07:30:02.773Z,4.81
2023-04-06T07:32:29.452Z,4.99
2023-04-06T07:34:57.076Z,4.82
2023-04-06T07:37:24.263Z,5.06
2023-04-06T07:39:53.713Z,5.17
2023-04-06T07:42:20.921Z,5.59
2023-04-06T07:44:49.558Z,5.72
2023-04-06T07:47:16.795Z,5.82
2023-04-06T07:49:43.424Z,5.97
2023-04-06T07:52:10.369Z,6.05
2023-04-06T07:54:37.485Z,6.23
2023-04-06T07:57:04.096Z,6.45
2023-04-06T07:59:30.731Z,6.53
2023-04-06T08:01:57.390Z,6.57
2023-04-06T08:04:24.162Z,6.69
2023-04-06T08:06:50.672Z,6.91
2023-04-06T08:09:17.199Z,6.93
2023-04-06T08:11:45.370Z,7.18
2023-04-06T08:14:11.899Z,7.12
2023-04-06T08:16:38.420Z,7.04
2023-04-06T08:19:05.602Z,7.33
2023-04-06T08:21:32.175Z,7.68
2023-04-06T08:23:59.076Z,7.66
2023-04-06T08:26:26.388Z,7.61
2023-04-06T08:28:52.898Z,7.90
2023-04-06T08:31:19.565Z,8.08
2023-04-06T08:33:46.289Z,8.26
2023-04-06T08:36:14.737Z,8.16
2023-04-06T08:38:42.311Z,8.24
2023-04-06T08:41:10.032Z,8.25
2023-04-06T08:43:45.235Z,8.40
2023-04-06T08:46:12.486Z,8.83
2023-04-06T08:48:43.962Z,8.81
2023-04-06T08:51:11.226Z,9.07
2023-04-06T08:53:38.195Z,9.14
2023-04-06T08:56:05.174Z,9.52
2023-04-06T08:58:38.508Z,9.33
2023-04-06T09:01:12.349Z,9.65
2023-04-06T09:03:41.539Z,9.80
2023-04-06T09:06:09.729Z,9.66
2023-04-06T09:08:38.801Z,9.86
2023-04-06T09:11:05.976Z,9.79
2023-04-06T09:13:44.772Z,9.88
2023-04-06T09:16:11.403Z,10.23
2023-04-06T09:18:38.137Z,9.91
2023-04-06T09:21:07.074Z,10.35
2023-04-06T09:23:33.816Z,10.03
2023-04-06T09:26:13.624Z,10.13
2023-04-06T09:28:56.118Z,10.23
2023-04-06T09:31:23.685Z,10.57
2023-04-06T09:33:50.808Z,10.67
2023-04-06T09:36:17.397Z,11.04
2023-04-06T09:38:58.587Z,10.79
2023-04-06T09:41:36.432Z,10.53
2023-04-06T09:44:12.839Z,11.45
2023-04-06T09:46:57.805Z,11.13
2023-04-06T09:49:28.965Z,11.49
2023-04-06T09:52:00.722Z,11.38
2023-04-06T09:54:30.521Z,11.45
2023-04-06T09:57:24.730Z,11.10
2023-04-06T10:00:04.613Z,11.26
2023-04-06T10:02:35.859Z,12.18
2023-04-06T10:05:20.549Z,12.04
2023-04-06T10:10:23.716Z,12.52
2023-04-06T10:12:50.841Z,12.92
2023-04-06T10:15:19.173Z,12.70
2023-04-06T10:17:47.768Z,12.84
2023-04-06T10:20:24.339Z,12.60
2023-04-06T10:23:15.093Z,12.46
2023-04-06T10:25:53.144Z,13.08
2023-04-06T10:28:21.124Z,12.75
2023-04-06T10:30:47.820Z,13.41
2023-04-06T10:33:21.167Z,13.85
2023-04-06T10:35:48.108Z,13.37
2023-04-06T10:38:15.325Z,12.86
2023-04-06T10:40:48.011Z,13.52
2023-04-06T10:43:23.320Z,13.85
2023-04-06T10:45:57.917Z,13.98
2023-04-06T10:48:25.042Z,13.12
2023-04-06T10:50:54.940Z,13.14
2023-04-06T10:53:28.872Z,13.14
2023-04-06T10:55:57.205Z,13.10
2023-04-06T10:58:28.267Z,13.43
2023-04-06T11:00:56.223Z,13.37
2023-04-06T11:03:22.896Z,14.28
2023-04-06T11:05:51.222Z,14.86
2023-04-06T11:08:24.764Z,14.88
2023-04-06T11:10:51.563Z,14.46
2023-04-06T11:13:18.462Z,14.52
2023-04-06T11:15:45.260Z,14.19
2023-04-06T11:18:12.486Z,15.09
2023-04-06T11:20:39.217Z,15.42
2023-04-06T11:23:05.982Z,14.99
2023-04-06T11:25:33.479Z,15.27
2023-04-06T11:28:00.375Z,15.59
2023-04-06T11:30:27.215Z,15.98
2023-04-06T11:33:02.046Z,15.77
2023-04-06T11:35:32.372Z,15.83
2023-04-06T11:38:00.470Z,14.95
2023-04-06T11:40:28.767Z,14.54
2023-04-06T11:42:56.293Z,14.97
2023-04-06T11:45:23.490Z,14.80
2023-04-06T11:48:01.665Z,15.11
2023-04-06T11:50:36.727Z,15.26
2023-04-06T11:53:03.916Z,14.53
2023-04-06T11:55:38.456Z,14.79
2023-04-06T11:58:05.257Z,14.70
2023-04-06T12:00:35.464Z,14.89
2023-04-06T12:03:02.252Z,14.43
2023-04-06T12:05:28.970Z,14.81
2023-04-06T12:07:55.669Z,15.14
2023-04-06T12:10:22.340Z,14.61
2023-04-06T12:12:48.820Z,15.23
2023-04-06T12:15:15.638Z,16.02
2023-04-06T12:17:42.446Z,16.34
2023-04-06T12:20:18.010Z,16.69
2023-04-06T12:22:51.600Z,16.69
2023-04-06T12:25:18.347Z,15.71
2023-04-06T12:27:44.842Z,15.76
2023-04-06T12:30:12.057Z,15.94
2023-04-06T12:32:38.803Z,15.88
2023-04-06T12:35:05.664Z,15.22
2023-04-06T12:37:34.776Z,16.04
2023-04-06T12:40:02.257Z,16.48
2023-04-06T12:42:28.954Z,16.93
2023-04-06T12:44:55.551Z,17.11
2023-04-06T12:47:23.765Z,16.79
2023-04-06T12:49:51.015Z,15.35
2023-04-06T12:52:17.807Z,16.49
2023-04-06T12:54:44.440Z,17.54
2023-04-06T12:57:11.014Z,16.15
2023-04-06T12:59:38.247Z,16.96
2023-04-06T13:02:05.890Z,17.13
2023-04-06T13:04:32.559Z,17.71
2023-04-06T13:06:59.107Z,17.33
2023-04-06T13:09:25.747Z,16.69
2023-04-06T13:11:52.558Z,16.28
2023-04-06T13:14:19.098Z,16.86
2023-04-06T13:16:45.897Z,16.58
2023-04-06T13:19:12.594Z,16.89
2023-04-06T13:21:40.523Z,16.95
2023-04-06T13:24:07.184Z,16.71
2023-04-06T13:26:33.802Z,17.62
2023-04-06T13:29:03.703Z,17.77
2023-04-06T13:31:30.618Z,18.06
2023-04-06T13:33:57.203Z,18.10
2023-04-06T13:36:23.958Z,16.99
2023-04-06T13:38:50.849Z,16.87
2023-04-06T13:41:22.414Z,17.41
2023-04-06T13:43:49.658Z,17.67
2023-04-06T13:46:16.395Z,18.36
2023-04-06T13:48:43.427Z,17.99
2023-04-06T13:51:11.317Z,18.17
2023-04-06T13:53:39.552Z,18.47
2023-04-06T13:56:08.173Z,18.37
2023-04-06T13:58:34.728Z,17.19
2023-04-06T14:01:11.039Z,17.60
2023-04-06T14:03:38.156Z,17.30
2023-04-06T14:08:44.381Z,17.76
2023-04-06T14:11:15.152Z,17.87
2023-04-06T14:13:41.676Z,18.40
2023-04-06T14:16:08.411Z,18.26
2023-04-06T14:18:35.337Z,17.18
2023-04-06T14:21:02.015Z,16.55
2023-04-06T14:23:29.273Z,16.85
2023-04-06T14:26:04.542Z,17.23
2023-04-06T14:28:31.796Z,17.60
2023-04-06T14:31:04.009Z,17.11
2023-04-06T14:33:31.582Z,16.49
2023-04-06T14:35:58.055Z,16.35
2023-04-06T14:38:24.536Z,15.83
2023-04-06T14:40:51.096Z,16.33
2023-04-06T14:43:17.705Z,15.79
2023-04-06T14:45:44.311Z,16.19
2023-04-06T14:48:12.923Z,16.03
2023-04-06T14:50:47.145Z,15.55
2023-04-06T14:53:14.164Z,15.68
2023-04-06T14:55:42.082Z,15.36
2023-04-06T14:58:08.603Z,15.47
2023-04-06T15:00:35.385Z,15.20
2023-04-06T15:03:02.193Z,15.51
2023-04-06T15:05:28.722Z,15.14
2023-04-06T15:07:55.348Z,15.32
2023-04-06T15:10:21.871Z,15.65
2023-04-06T15:12:48.314Z,15.77
2023-04-06T15:15:15.098Z,15.43
2023-04-06T15:17:41.544Z,15.09
2023-04-06T15:20:08.355Z,15.13
2023-04-06T15:22:34.976Z,15.05
2023-04-06T15:25:01.674Z,15.03
2023-04-06T15:27:28.119Z,14.93
2023-04-06T15:29:54.883Z,14.81
2023-04-06T15:32:21.637Z,14.79
2023-04-06T15:34:48.406Z,14.60
2023-04-06T15:37:15.110Z,14.60
2023-04-06T15:39:41.702Z,14.71
2023-04-06T15:42:08.444Z,14.70
2023-04-06T15:44:34.972Z,14.54
2023-04-06T15:47:01.514Z,14.74
2023-04-06T15:49:28.667Z,14.72
2023-04-06T15:51:55.201Z,14.52
2023-04-06T15:54:21.833Z,14.75
2023-04-06T15:56:48.948Z,14.80
2023-04-06T15:59:16.616Z,14.65
2023-04-06T16:01:43.441Z,14.61
2023-04-06T16:04:11.555Z,14.61
2023-04-06T16:06:38.416Z,14.46
2023-04-06T16:09:04.957Z,14.39
2023-04-06T16:11:32.600Z,14.42
2023-04-06T16:13:59.594Z,14.16
2023-04-06T16:16:27.273Z,14.18
2023-04-06T16:18:53.879Z,14.23
2023-04-06T16:21:20.385Z,14.00
2023-04-06T16:23:47.351Z,14.16
2023-04-06T16:26:15.557Z,13.98
2023-04-06T16:28:42.738Z,13.85
2023-04-06T16:31:17.766Z,13.92
2023-04-06T16:33:44.582Z,14.17
2023-04-06T16:36:12.138Z,14.21
2023-04-06T16:38:38.762Z,13.83
2023-04-06T16:41:05.301Z,13.86
2023-04-06T16:43:32.450Z,13.50
2023-04-06T16:45:59.152Z,13.63
2023-04-06T16:48:25.789Z,13.67
2023-04-06T16:50:52.441Z,13.53
2023-04-06T16:53:18.880Z,13.70
2023-04-06T16:55:45.378Z,13.59
2023-04-06T16:58:12.013Z,13.35
2023-04-06T17:00:38.415Z,13.37
2023-04-06T17:03:05.242Z,13.23
2023-04-06T17:05:34.565Z,12.85
2023-04-06T17:08:01.011Z,12.86
2023-04-06T17:10:33.187Z,12.82
2023-04-06T17:13:03.711Z,12.99
2023-04-06T17:15:31.730Z,12.84
2023-04-06T17:17:58.540Z,12.60
2023-04-06T17:20:25.069Z,12.47
2023-04-06T17:22:51.816Z,12.26
2023-04-06T17:25:18.742Z,12.23
2023-04-06T17:27:45.497Z,12.25
2023-04-06T17:30:12.701Z,12.23
2023-04-06T17:32:39.508Z,12.18
2023-04-06T17:35:06.417Z,12.19
2023-04-06T17:37:33.042Z,11.96
2023-04-06T17:39:59.730Z,11.96
2023-04-06T17:42:26.434Z,11.87
2023-04-06T17:44:53.330Z,11.93
2023-04-06T17:47:20.059Z,12.08
2023-04-06T17:49:46.926Z,11.88
2023-04-06T17:52:13.481Z,11.95
2023-04-06T17:54:39.908Z,11.71
2023-04-06T17:57:07.631Z,11.76
2023-04-06T17:59:34.519Z,11.67
2023-04-06T18:02:02.963Z,11.60
2023-04-06T18:04:29.778Z,11.57
2023-04-06T18:06:56.338Z,11.46
2023-04-06T18:09:22.805Z,11.38
2023-04-06T18:11:49.425Z,11.38
2023-04-06T18:14:16.371Z,11.33
2023-04-06T18:16:43.242Z,11.49
2023-04-06T18:19:09.815Z,11.37
2023-04-06T18:21:36.491Z,11.23
2023-04-06T18:24:05.125Z,11.09
2023-04-06T18:26:33.685Z,11.03
2023-04-06T18:29:00.617Z,11.00
2023-04-06T18:31:27.465Z,11.09
2023-04-06T18:33:54.751Z,11.01
2023-04-06T18:36:21.692Z,11.05
2023-04-06T18:38:48.823Z,11.06
2023-04-06T18:41:16.775Z,10.88
2023-04-06T18:43:43.387Z,10.81
2023-04-06T18:46:14.831Z,10.65
2023-04-06T18:48:42.232Z,10.58
2023-04-06T18:51:08.959Z,10.47
2023-04-06T18:53:37.302Z,10.53
2023-04-06T18:56:16.550Z,10.52
2023-04-06T18:58:43.437Z,10.41
2023-04-06T19:01:10.159Z,10.06
2023-04-06T19:03:37.543Z,9.92
2023-04-06T19:06:07.316Z,9.89
2023-04-06T19:08:33.777Z,9.89
2023-04-06T19:11:05.898Z,9.89
2023-04-06T19:13:32.562Z,9.70
2023-04-06T19:15:58.971Z,9.48
2023-04-06T19:18:25.732Z,9.47
2023-04-06T19:20:52.762Z,9.49
2023-04-06T19:23:19.566Z,9.36
2023-04-06T19:25:46.012Z,9.30
2023-04-06T19:28:14.736Z,9.11
2023-04-06T19:30:42.108Z,9.05
2023-04-06T19:33:09.245Z,8.96
2023-04-06T19:35:35.770Z,8.89
2023-04-06T19:38:02.493Z,9.01
2023-04-06T19:40:28.918Z,8.85
2023-04-06T19:42:55.731Z,8.70
2023-04-06T19:45:22.171Z,8.73
2023-04-06T19:47:48.937Z,8.99
2023-04-06T19:50:15.603Z,9.15
2023-04-06T19:52:42.118Z,9.03
2023-04-06T19:55:08.892Z,9.16
2023-04-06T19:57:35.472Z,9.13
2023-04-06T20:00:02.115Z,9.19
2023-04-06T20:02:36.237Z,9.21
2023-04-06T20:05:03.042Z,9.23
2023-04-06T20:07:29.677Z,9.20
2023-04-06T20:09:56.303Z,9.26
2023-04-06T20:12:22.940Z,9.16
2023-04-06T20:14:50.874Z,9.13
2023-04-06T20:17:17.569Z,9.11
2023-04-06T20:19:43.996Z,9.12
2023-04-06T20:22:10.805Z,9.06
2023-04-06T20:24:37.252Z,9.06
2023-04-06T20:27:04.205Z,9.12
2023-04-06T20:29:30.757Z,9.12
2023-04-06T20:31:58.460Z,9.06
2023-04-06T20:34:28.647Z,9.08
2023-04-06T20:36:56.359Z,9.08
2023-04-06T20:39:23.939Z,9.04
2023-04-06T20:41:51.495Z,8.91
2023-04-06T20:44:19.113Z,8.92
2023-04-06T20:46:45.927Z,8.96
2023-04-06T20:49:12.780Z,8.88
2023-04-06T20:51:39.282Z,8.89
2023-04-06T20:54:05.831Z,8.77
2023-04-06T20:56:32.314Z,8.76
2023-04-06T20:58:59.787Z,8.73
2023-04-06T21:01:27.347Z,8.63
2023-04-06T21:03:54.136Z,8.66
2023-04-06T21:06:21.693Z,8.65
2023-04-06T21:08:48.177Z,8.68
2023-04-06T21:11:14.748Z,8.65
2023-04-06T21:13:41.276Z,8.55
2023-04-06T21:16:07.973Z,8.61
2023-04-06T21:18:34.484Z,8.49
2023-04-06T21:21:01.219Z,8.45
2023-04-06T21:23:27.739Z,8.40
2023-04-06T21:25:57.353Z,8.43
2023-04-06T21:28:25.401Z,8.37
2023-04-06T21:30:53.165Z,8.37
2023-04-06T21:33:20.449Z,8.38
2023-04-06T21:35:46.863Z,8.38
2023-04-06T21:38:13.943Z,8.40
2023-04-06T21:40:40.566Z,8.38
2023-04-06T21:43:07.075Z,8.37
2023-04-06T21:45:33.621Z,8.26
2023-04-06T21:48:00.411Z,8.27
2023-04-06T21:50:26.964Z,8.31
2023-04-06T21:52:53.721Z,8.24
2023-04-06T21:55:20.743Z,8.26
2023-04-06T21:57:47.154Z,8.15
2023-04-06T22:00:14.191Z,8.18
2023-04-06T22:02:45.576Z,8.08
2023-04-06T22:05:12.870Z,8.08
2023-04-06T22:07:39.385Z,7.97
2023-04-06T22:10:06.403Z,8.10
2023-04-06T22:12:32.898Z,8.04
2023-04-06T22:14:59.889Z,8.03
2023-04-06T22:17:27.256Z,8.02
2023-04-06T22:19:54.084Z,7.96
2023-04-06T22:22:20.786Z,7.96
2023-04-06T22:24:47.387Z,7.96
2023-04-06T22:27:14.146Z,7.87
2023-04-06T22:29:40.741Z,7.87
2023-04-06T22:32:07.320Z,7.83
2023-04-06T22:34:33.787Z,7.86
2023-04-06T22:37:00.459Z,7.91
2023-04-06T22:39:26.974Z,7.88
2023-04-06T22:41:53.625Z,7.86
2023-04-06T22:44:20.309Z,7.95
2023-04-06T22:46:46.922Z,7.90
2023-04-06T22:49:13.681Z,7.90
2023-04-06T22:51:41.898Z,7.86
2023-04-06T22:54:12.502Z,7.89
2023-04-06T22:56:38.976Z,7.88
2023-04-06T22:59:05.441Z,7.94
2023-04-06T23:01:32.171Z,7.74
2023-04-06T23:03:58.933Z,7.81
2023-04-06T23:06:27.405Z,7.78
2023-04-06T23:08:53.910Z,7.84
2023-04-06T23:11:21.185Z,7.77
2023-04-06T23:13:47.768Z,7.78
2023-04-06T23:16:14.316Z,7.80
2023-04-06T23:18:40.868Z,7.76
2023-04-06T23:21:07.996Z,7.75
2023-04-06T23:23:34.578Z,7.63
2023-04-06T23:26:01.213Z,7.62
2023-04-06T23:28:27.782Z,7.71
2023-04-06T23:30:54.323Z,7.69
2023-04-06T23:33:20.875Z,7.74
2023-04-06T23:35:47.438Z,7.72
2023-04-06T23:38:14.091Z,7.71
2023-04-06T23:40:40.787Z,7.72
2023-04-06T23:43:07.454Z,7.61
2023-04-06T23:45:33.924Z,7.67
2023-04-06T23:48:00.649Z,7.66
2023-04-06T23:50:27.103Z,7.69
2023-04-06T23:52:53.753Z,7.71
2023-04-06T23:55:20.318Z,7.71
2023-04-06T23:57:46.902Z,7.68
